createdAt,value
2022-08-27T00:00:51.924Z,0.00
2022-08-27T00:01:52.116Z,0.00
2022-08-27T00:02:52.259Z,0.00
2022-08-27T00:03:52.501Z,0.00
2022-08-27T00:04:52.599Z,0.00
2022-08-27T00:05:52.795Z,0.00
2022-08-27T00:06:52.972Z,0.00
2022-08-27T00:07:53.128Z,0.00
2022-08-27T00:08:53.287Z,0.00
2022-08-27T00:09:53.448Z,0.00
2022-08-27T00:10:53.643Z,0.00
2022-08-27T00:11:53.788Z,0.00
2022-08-27T00:12:53.948Z,0.00
2022-08-27T00:13:54.134Z,0.00
2022-08-27T00:14:54.320Z,0.00
2022-08-27T00:15:54.530Z,0.00
2022-08-27T00:16:54.709Z,0.00
2022-08-27T00:17:54.841Z,0.00
2022-08-27T00:18:55.002Z,0.00
2022-08-27T00:19:55.193Z,0.00
2022-08-27T00:20:55.372Z,0.00
2022-08-27T00:21:55.533Z,0.00
2022-08-27T00:22:55.695Z,0.00
2022-08-27T00:23:55.887Z,0.00
2022-08-27T00:24:56.064Z,0.00
2022-08-27T00:25:56.282Z,0.00
2022-08-27T00:26:56.422Z,0.00
2022-08-27T00:27:56.579Z,0.00
2022-08-27T00:28:56.736Z,0.00
2022-08-27T00:29:56.904Z,0.00
2022-08-27T00:30:57.094Z,0.00
2022-08-27T00:31:57.298Z,0.00
2022-08-27T00:32:57.407Z,0.00
2022-08-27T00:33:57.565Z,0.00
2022-08-27T00:34:57.725Z,0.00
2022-08-27T00:35:57.929Z,0.00
2022-08-27T00:36:58.097Z,0.00
2022-08-27T00:37:58.249Z,0.00
2022-08-27T00:38:58.438Z,0.00
2022-08-27T00:39:58.659Z,0.00
2022-08-27T00:40:58.789Z,0.00
2022-08-27T00:41:58.948Z,0.00
2022-08-27T00:42:59.101Z,0.00
2022-08-27T00:43:59.311Z,0.00
2022-08-27T00:44:59.481Z,0.00
2022-08-27T00:45:59.667Z,0.00
2022-08-27T00:46:59.781Z,0.00
2022-08-27T00:47:59.981Z,0.00
2022-08-27T00:49:00.152Z,0.00
2022-08-27T00:50:00.313Z,0.00
2022-08-27T00:51:00.492Z,0.00
2022-08-27T00:52:00.684Z,0.00
2022-08-27T00:53:00.858Z,0.00
2022-08-27T00:54:01.009Z,0.00
2022-08-27T00:55:01.164Z,0.00
2022-08-27T00:56:01.356Z,0.00
2022-08-27T00:57:01.515Z,0.00
2022-08-27T00:58:01.720Z,0.00
2022-08-27T00:59:01.887Z,0.00
2022-08-27T01:00:02.082Z,0.00
2022-08-27T01:01:02.273Z,0.00
2022-08-27T01:02:02.485Z,0.00
2022-08-27T01:03:02.602Z,0.00
2022-08-27T01:04:02.768Z,0.00
2022-08-27T01:05:02.926Z,0.00
2022-08-27T01:06:03.117Z,0.00
2022-08-27T01:07:03.288Z,0.00
2022-08-27T01:08:03.510Z,0.00
2022-08-27T01:09:03.650Z,0.00
2022-08-27T01:10:03.805Z,0.00
2022-08-27T01:11:03.991Z,0.00
2022-08-27T01:12:04.180Z,0.00
2022-08-27T01:13:04.368Z,0.00
2022-08-27T01:14:04.572Z,0.00
2022-08-27T01:15:04.728Z,0.00
2022-08-27T01:16:04.963Z,0.00
2022-08-27T01:17:05.085Z,0.00
2022-08-27T01:18:05.269Z,0.00
2022-08-27T01:19:05.464Z,0.00
2022-08-27T01:20:05.654Z,0.00
2022-08-27T01:21:05.810Z,0.00
2022-08-27T01:22:05.996Z,0.00
2022-08-27T01:23:06.154Z,0.00
2022-08-27T01:24:06.355Z,0.00
2022-08-27T01:25:06.507Z,0.00
2022-08-27T01:26:06.697Z,0.00
2022-08-27T01:27:06.850Z,0.00
2022-08-27T01:28:08.046Z,0.00
2022-08-27T01:29:07.178Z,0.00
2022-08-27T01:30:07.339Z,0.00
2022-08-27T01:31:07.526Z,0.00
2022-08-27T01:32:07.677Z,0.00
2022-08-27T01:33:07.874Z,0.00
2022-08-27T01:34:08.028Z,0.00
2022-08-27T01:35:08.218Z,0.00
2022-08-27T01:36:08.415Z,0.00
2022-08-27T01:37:08.606Z,0.00
2022-08-27T01:38:09.468Z,0.00
2022-08-27T01:39:09.910Z,0.00
2022-08-27T01:40:09.104Z,0.00
2022-08-27T01:41:09.232Z,0.00
2022-08-27T01:42:09.433Z,0.00
2022-08-27T01:43:09.578Z,0.00
2022-08-27T01:44:09.765Z,0.00
2022-08-27T01:45:09.949Z,0.00
2022-08-27T01:46:10.106Z,0.00
2022-08-27T01:47:10.296Z,0.00
2022-08-27T01:48:10.594Z,0.00
2022-08-27T01:49:10.638Z,0.00
2022-08-27T01:50:10.826Z,0.00
2022-08-27T01:51:11.017Z,0.00
2022-08-27T01:52:11.186Z,0.00
2022-08-27T01:53:11.346Z,0.00
2022-08-27T01:54:11.499Z,0.00
2022-08-27T01:55:11.693Z,0.00
2022-08-27T01:56:11.891Z,0.00
2022-08-27T01:57:12.074Z,0.00
2022-08-27T01:58:15.190Z,0.00
2022-08-27T01:59:12.389Z,0.00
2022-08-27T02:00:12.581Z,0.00
2022-08-27T02:01:12.788Z,0.00
2022-08-27T02:02:12.967Z,0.00
2022-08-27T02:03:13.066Z,0.00
2022-08-27T02:04:13.234Z,0.00
2022-08-27T02:05:13.387Z,0.00
2022-08-27T02:06:13.581Z,0.00
2022-08-27T02:07:13.762Z,0.00
2022-08-27T02:08:13.912Z,0.00
2022-08-27T02:09:14.089Z,0.00
2022-08-27T02:10:14.274Z,0.00
2022-08-27T02:11:14.423Z,0.00
2022-08-27T02:12:14.643Z,0.00
2022-08-27T02:13:14.791Z,0.00
2022-08-27T02:14:14.943Z,0.00
2022-08-27T02:15:15.145Z,0.00
2022-08-27T02:16:15.371Z,0.00
2022-08-27T02:17:15.451Z,0.00
2022-08-27T02:18:15.674Z,0.00
2022-08-27T02:19:15.826Z,0.00
2022-08-27T02:20:15.997Z,0.00
2022-08-27T02:21:16.196Z,0.00
2022-08-27T02:22:16.380Z,0.00
2022-08-27T02:23:16.626Z,0.00
2022-08-27T02:24:16.738Z,0.00
2022-08-27T02:25:16.920Z,0.00
2022-08-27T02:26:17.103Z,0.00
2022-08-27T02:27:17.298Z,0.00
2022-08-27T02:28:17.461Z,0.00
2022-08-27T02:29:17.631Z,0.00
2022-08-27T02:30:17.789Z,0.00
2022-08-27T02:31:17.986Z,0.00
2022-08-27T02:32:31.541Z,0.00
2022-08-27T02:33:19.352Z,0.00
2022-08-27T02:34:18.493Z,0.00
2022-08-27T02:35:18.682Z,0.00
2022-08-27T02:36:18.863Z,0.00
2022-08-27T02:37:19.059Z,0.00
2022-08-27T02:38:19.211Z,0.00
2022-08-27T02:39:19.405Z,0.00
2022-08-27T02:40:19.589Z,0.00
2022-08-27T02:41:19.735Z,0.00
2022-08-27T02:42:19.916Z,0.00
2022-08-27T02:43:25.087Z,0.00
2022-08-27T02:44:21.254Z,0.00
2022-08-27T02:45:20.428Z,0.00
2022-08-27T02:46:20.608Z,0.00
2022-08-27T02:47:20.781Z,0.00
2022-08-27T02:48:20.939Z,0.00
2022-08-27T02:49:21.098Z,0.00
2022-08-27T02:50:21.280Z,0.00
2022-08-27T02:51:22.438Z,0.00
2022-08-27T02:52:25.090Z,0.00
2022-08-27T02:53:21.760Z,0.00
2022-08-27T02:54:21.941Z,0.00
2022-08-27T02:55:22.122Z,0.00
2022-08-27T02:56:22.291Z,0.00
2022-08-27T02:57:22.493Z,0.00
2022-08-27T02:58:22.638Z,0.00
2022-08-27T02:59:22.826Z,0.00
2022-08-27T03:00:23.031Z,0.00
2022-08-27T03:01:23.259Z,0.00
2022-08-27T03:02:23.449Z,0.00
2022-08-27T03:03:23.534Z,0.00
2022-08-27T03:04:23.733Z,0.00
2022-08-27T03:05:23.902Z,0.00
2022-08-27T03:06:24.062Z,0.00
2022-08-27T03:07:24.216Z,0.00
2022-08-27T03:08:24.372Z,0.00
2022-08-27T03:09:24.575Z,0.00
2022-08-27T03:10:24.735Z,0.00
2022-08-27T03:11:24.897Z,0.00
2022-08-27T03:12:25.088Z,0.00
2022-08-27T03:13:25.217Z,0.00
2022-08-27T03:14:25.386Z,0.00
2022-08-27T03:15:25.563Z,0.00
2022-08-27T03:16:25.748Z,0.00
2022-08-27T03:17:25.889Z,0.00
2022-08-27T03:18:26.080Z,0.00
2022-08-27T03:19:26.243Z,0.00
2022-08-27T03:20:26.421Z,0.00
2022-08-27T03:21:26.582Z,0.00
2022-08-27T03:22:26.741Z,0.00
2022-08-27T03:23:26.927Z,0.00
2022-08-27T03:24:27.122Z,0.00
2022-08-27T03:25:27.292Z,0.00
2022-08-27T03:26:27.452Z,0.00
2022-08-27T03:27:27.603Z,0.00
2022-08-27T03:28:27.768Z,0.00
2022-08-27T03:29:27.925Z,0.00
2022-08-27T03:30:28.098Z,0.00
2022-08-27T03:31:28.346Z,0.00
2022-08-27T03:32:28.425Z,0.00
2022-08-27T03:33:28.615Z,0.00
2022-08-27T03:34:28.765Z,0.00
2022-08-27T03:35:28.984Z,0.00
2022-08-27T03:36:29.124Z,0.00
2022-08-27T03:37:29.316Z,0.00
2022-08-27T03:38:29.470Z,0.00
2022-08-27T03:39:29.654Z,0.00
2022-08-27T03:40:29.948Z,0.00
2022-08-27T03:41:53.947Z,0.00
2022-08-27T03:42:31.163Z,0.00
2022-08-27T03:43:30.339Z,0.00
2022-08-27T03:44:30.498Z,0.00
2022-08-27T03:45:30.670Z,0.00
2022-08-27T03:46:31.838Z,0.00
2022-08-27T03:47:30.991Z,0.00
2022-08-27T03:48:31.141Z,0.00
2022-08-27T03:49:31.301Z,0.00
2022-08-27T03:50:31.486Z,4.00
2022-08-27T03:51:31.642Z,4.00
2022-08-27T03:52:31.833Z,0.00
2022-08-27T03:53:31.993Z,0.00
2022-08-27T03:54:32.153Z,0.00
2022-08-27T03:55:32.331Z,0.00
2022-08-27T03:56:32.483Z,4.00
2022-08-27T03:57:32.677Z,4.00
2022-08-27T03:58:32.860Z,4.00
2022-08-27T03:59:33.024Z,4.00
2022-08-27T04:00:33.226Z,4.00
2022-08-27T04:01:33.427Z,8.00
2022-08-27T04:02:33.588Z,4.00
2022-08-27T04:03:33.736Z,8.00
2022-08-27T04:04:33.910Z,8.00
2022-08-27T04:05:34.070Z,8.00
2022-08-27T04:06:34.228Z,12.00
2022-08-27T04:07:34.407Z,8.00
2022-08-27T04:08:34.567Z,12.00
2022-08-27T04:09:34.751Z,12.00
2022-08-27T04:10:35.143Z,12.00
2022-08-27T04:11:35.083Z,12.00
2022-08-27T04:12:35.249Z,16.00
2022-08-27T04:13:35.430Z,20.00
2022-08-27T04:14:35.611Z,16.00
2022-08-27T04:15:40.571Z,20.00
2022-08-27T04:16:36.975Z,20.00
2022-08-27T04:17:36.131Z,20.00
2022-08-27T04:18:36.302Z,24.00
2022-08-27T04:19:36.493Z,20.00
2022-08-27T04:20:36.666Z,24.00
2022-08-27T04:21:36.828Z,24.00
2022-08-27T04:22:37.011Z,24.00
2022-08-27T04:23:37.185Z,28.00
2022-08-27T04:24:37.376Z,28.00
2022-08-27T04:25:37.555Z,28.00
2022-08-27T04:26:37.724Z,28.00
2022-08-27T04:27:37.906Z,28.00
2022-08-27T04:28:38.980Z,24.00
2022-08-27T04:29:38.268Z,28.00
2022-08-27T04:30:38.439Z,32.00
2022-08-27T04:31:38.695Z,32.00
2022-08-27T04:32:38.769Z,36.00
2022-08-27T04:33:38.960Z,40.00
2022-08-27T04:34:39.108Z,44.00
2022-08-27T04:35:39.299Z,44.00
2022-08-27T04:36:39.481Z,48.00
2022-08-27T04:37:39.650Z,48.00
2022-08-27T04:38:39.841Z,48.00
2022-08-27T04:39:39.991Z,52.00
2022-08-27T04:40:40.178Z,56.00
2022-08-27T04:41:40.371Z,56.00
2022-08-27T04:42:40.541Z,56.00
2022-08-27T04:43:40.692Z,56.00
2022-08-27T04:44:40.863Z,56.00
2022-08-27T04:45:41.073Z,52.00
2022-08-27T04:46:41.257Z,52.00
2022-08-27T04:47:42.401Z,52.00
2022-08-27T04:48:41.566Z,52.00
2022-08-27T04:49:41.753Z,52.00
2022-08-27T04:50:41.914Z,52.00
2022-08-27T04:51:42.095Z,52.00
2022-08-27T04:52:42.247Z,56.00
2022-08-27T04:53:42.433Z,56.00
2022-08-27T04:54:42.607Z,56.00
2022-08-27T04:55:42.756Z,60.00
2022-08-27T04:56:42.915Z,60.00
2022-08-27T04:57:43.087Z,64.00
2022-08-27T04:58:43.274Z,64.00
2022-08-27T04:59:43.477Z,64.00
2022-08-27T05:00:43.618Z,72.00
2022-08-27T05:01:43.846Z,76.00
2022-08-27T05:02:43.979Z,76.00
2022-08-27T05:03:44.161Z,80.00
2022-08-27T05:04:44.350Z,84.00
2022-08-27T05:05:44.563Z,88.00
2022-08-27T05:06:44.685Z,84.00
2022-08-27T05:07:44.866Z,84.00
2022-08-27T05:08:45.051Z,80.00
2022-08-27T05:09:45.202Z,80.00
2022-08-27T05:10:45.383Z,80.00
2022-08-27T05:11:45.561Z,76.00
2022-08-27T05:12:45.720Z,76.00
2022-08-27T05:13:45.918Z,80.00
2022-08-27T05:14:46.062Z,84.00
2022-08-27T05:15:46.348Z,84.00
2022-08-27T05:16:46.433Z,84.00
2022-08-27T05:17:46.606Z,84.00
2022-08-27T05:18:48.434Z,88.00
2022-08-27T05:19:46.926Z,80.00
2022-08-27T05:20:47.108Z,80.00
2022-08-27T05:21:47.275Z,84.00
2022-08-27T05:22:47.465Z,84.00
2022-08-27T05:23:47.617Z,80.00
2022-08-27T05:24:50.229Z,84.00
2022-08-27T05:25:47.949Z,84.00
2022-08-27T05:26:48.106Z,88.00
2022-08-27T05:27:48.313Z,88.00
2022-08-27T05:28:48.459Z,92.00
2022-08-27T05:29:48.640Z,92.00
2022-08-27T05:30:52.545Z,92.00
2022-08-27T05:31:50.000Z,88.00
2022-08-27T05:32:49.181Z,88.00
2022-08-27T05:33:49.342Z,88.00
2022-08-27T05:34:49.492Z,88.00
2022-08-27T05:35:49.692Z,88.00
2022-08-27T05:36:49.892Z,96.00
2022-08-27T05:37:50.085Z,116.00
2022-08-27T05:38:50.232Z,120.00
2022-08-27T05:39:50.441Z,116.00
2022-08-27T05:40:50.587Z,116.00
2022-08-27T05:41:50.753Z,124.00
2022-08-27T05:42:51.230Z,112.00
2022-08-27T05:43:51.104Z,116.00
2022-08-27T05:44:51.273Z,132.00
2022-08-27T05:45:51.487Z,140.00
2022-08-27T05:46:51.596Z,140.00
2022-08-27T05:47:51.779Z,136.00
2022-08-27T05:48:51.920Z,136.00
2022-08-27T05:49:52.107Z,192.00
2022-08-27T05:50:52.265Z,196.00
2022-08-27T05:51:52.422Z,192.00
2022-08-27T05:52:52.598Z,184.00
2022-08-27T05:53:52.751Z,192.00
2022-08-27T05:54:52.925Z,200.00
2022-08-27T05:55:53.089Z,228.00
2022-08-27T05:56:53.272Z,228.00
2022-08-27T05:57:53.421Z,232.00
2022-08-27T05:58:53.588Z,220.00
2022-08-27T05:59:53.800Z,228.00
2022-08-27T06:00:53.912Z,256.00
2022-08-27T06:01:54.120Z,248.00
2022-08-27T06:02:54.276Z,248.00
2022-08-27T06:03:54.411Z,288.00
2022-08-27T06:04:54.665Z,316.00
2022-08-27T06:05:54.750Z,316.00
2022-08-27T06:06:54.927Z,292.00
2022-08-27T06:07:55.083Z,284.00
2022-08-27T06:08:55.266Z,296.00
2022-08-27T06:09:55.436Z,308.00
2022-08-27T06:10:55.596Z,280.00
2022-08-27T06:11:55.796Z,280.00
2022-08-27T06:12:57.107Z,288.00
2022-08-27T06:13:56.117Z,300.00
2022-08-27T06:14:56.296Z,296.00
2022-08-27T06:15:56.476Z,312.00
2022-08-27T06:16:56.658Z,324.00
2022-08-27T06:17:56.831Z,364.00
2022-08-27T06:18:56.999Z,344.00
2022-08-27T06:19:57.198Z,380.00
2022-08-27T06:20:57.393Z,432.00
2022-08-27T06:22:01.126Z,408.00
2022-08-27T06:22:58.747Z,420.00
2022-08-27T06:23:57.931Z,392.00
2022-08-27T06:24:58.102Z,416.00
2022-08-27T06:25:58.291Z,412.00
2022-08-27T06:26:58.489Z,416.00
2022-08-27T06:27:58.652Z,424.00
2022-08-27T06:28:58.824Z,412.00
2022-08-27T06:29:58.996Z,360.00
2022-08-27T06:30:59.211Z,352.00
2022-08-27T06:31:59.352Z,348.00
2022-08-27T06:32:59.497Z,312.00
2022-08-27T06:34:00.722Z,320.00
2022-08-27T06:35:00.814Z,324.00
2022-08-27T06:35:59.996Z,360.00
2022-08-27T06:37:00.201Z,352.00
2022-08-27T06:38:00.361Z,364.00
2022-08-27T06:39:00.536Z,336.00
2022-08-27T06:40:00.824Z,304.00
2022-08-27T06:41:00.886Z,316.00
2022-08-27T06:42:01.055Z,280.00
2022-08-27T06:43:01.226Z,312.00
2022-08-27T06:44:01.393Z,304.00
2022-08-27T06:45:01.567Z,280.00
2022-08-27T06:46:01.803Z,316.00
2022-08-27T06:47:01.895Z,364.00
2022-08-27T06:48:02.059Z,364.00
2022-08-27T06:49:02.240Z,320.00
2022-08-27T06:50:02.396Z,332.00
2022-08-27T06:51:02.609Z,348.00
2022-08-27T06:52:02.750Z,328.00
2022-08-27T06:53:02.939Z,344.00
2022-08-27T06:54:03.113Z,332.00
2022-08-27T06:55:03.290Z,360.00
2022-08-27T06:56:03.500Z,372.00
2022-08-27T06:57:03.657Z,400.00
2022-08-27T06:58:03.900Z,452.00
2022-08-27T06:59:04.009Z,528.00
2022-08-27T07:00:04.207Z,456.00
2022-08-27T07:01:04.423Z,388.00
2022-08-27T07:02:04.504Z,372.00
2022-08-27T07:03:04.677Z,356.00
2022-08-27T07:04:05.649Z,368.00
2022-08-27T07:05:05.006Z,352.00
2022-08-27T07:06:05.205Z,328.00
2022-08-27T07:07:05.366Z,312.00
2022-08-27T07:08:05.528Z,316.00
2022-08-27T07:09:05.706Z,300.00
2022-08-27T07:10:05.857Z,280.00
2022-08-27T07:11:06.057Z,272.00
2022-08-27T07:12:06.229Z,284.00
2022-08-27T07:13:06.403Z,292.00
2022-08-27T07:14:06.569Z,308.00
2022-08-27T07:15:06.758Z,328.00
2022-08-27T07:16:06.960Z,356.00
2022-08-27T07:17:09.797Z,384.00
2022-08-27T07:18:07.303Z,408.00
2022-08-27T07:19:07.430Z,440.00
2022-08-27T07:20:07.592Z,448.00
2022-08-27T07:21:07.752Z,444.00
2022-08-27T07:22:07.931Z,416.00
2022-08-27T07:23:10.980Z,416.00
2022-08-27T07:24:08.269Z,412.00
2022-08-27T07:25:08.428Z,428.00
2022-08-27T07:26:08.635Z,428.00
2022-08-27T07:27:08.794Z,416.00
2022-08-27T07:28:08.950Z,468.00
2022-08-27T07:29:09.115Z,532.00
2022-08-27T07:30:09.295Z,624.00
2022-08-27T07:31:09.531Z,632.00
2022-08-27T07:32:09.613Z,620.00
2022-08-27T07:33:09.784Z,588.00
2022-08-27T07:34:09.947Z,604.00
2022-08-27T07:35:10.134Z,632.00
2022-08-27T07:36:10.325Z,608.00
2022-08-27T07:37:10.457Z,568.00
2022-08-27T07:38:10.730Z,588.00
2022-08-27T07:39:10.787Z,616.00
2022-08-27T07:40:10.977Z,624.00
2022-08-27T07:41:11.129Z,672.00
2022-08-27T07:42:11.286Z,668.00
2022-08-27T07:43:11.458Z,740.00
2022-08-27T07:44:11.664Z,760.00
2022-08-27T07:45:11.821Z,768.00
2022-08-27T07:46:12.032Z,768.00
2022-08-27T07:47:12.150Z,760.00
2022-08-27T07:48:12.511Z,756.00
2022-08-27T07:49:12.492Z,728.00
2022-08-27T07:50:12.662Z,764.00
2022-08-27T07:51:12.840Z,688.00
2022-08-27T07:52:13.017Z,672.00
2022-08-27T07:53:13.183Z,604.00
2022-08-27T07:54:13.326Z,552.00
2022-08-27T07:55:13.492Z,492.00
2022-08-27T07:56:13.654Z,528.00
2022-08-27T07:57:13.814Z,472.00
2022-08-27T07:58:18.100Z,428.00
2022-08-27T07:59:14.144Z,424.00
2022-08-27T08:00:14.327Z,412.00
2022-08-27T08:01:14.525Z,396.00
2022-08-27T08:02:14.700Z,388.00
2022-08-27T08:03:14.825Z,388.00
2022-08-27T08:04:19.507Z,408.00
2022-08-27T08:05:16.149Z,428.00
2022-08-27T08:06:15.338Z,484.00
2022-08-27T08:07:15.503Z,540.00
2022-08-27T08:08:15.686Z,556.00
2022-08-27T08:09:15.840Z,600.00
2022-08-27T08:10:16.037Z,620.00
2022-08-27T08:11:16.187Z,616.00
2022-08-27T08:12:16.381Z,672.00
2022-08-27T08:13:16.562Z,756.00
2022-08-27T08:14:16.737Z,876.00
2022-08-27T08:15:16.910Z,904.00
2022-08-27T08:16:17.097Z,844.00
2022-08-27T08:17:17.329Z,688.00
2022-08-27T08:18:17.443Z,768.00
2022-08-27T08:19:17.633Z,764.00
2022-08-27T08:20:27.581Z,744.00
2022-08-27T08:21:18.984Z,600.00
2022-08-27T08:22:18.166Z,596.00
2022-08-27T08:23:18.342Z,500.00
2022-08-27T08:24:18.514Z,524.00
2022-08-27T08:25:18.696Z,520.00
2022-08-27T08:26:18.873Z,500.00
2022-08-27T08:27:19.066Z,504.00
2022-08-27T08:28:19.227Z,560.00
2022-08-27T08:29:19.388Z,652.00
2022-08-27T08:30:19.605Z,632.00
2022-08-27T08:31:19.826Z,648.00
2022-08-27T08:32:19.948Z,704.00
2022-08-27T08:33:20.115Z,736.00
2022-08-27T08:34:20.288Z,688.00
2022-08-27T08:35:20.459Z,664.00
2022-08-27T08:36:20.620Z,648.00
2022-08-27T08:37:20.823Z,624.00
2022-08-27T08:38:20.980Z,648.00
2022-08-27T08:39:21.159Z,716.00
2022-08-27T08:40:21.388Z,708.00
2022-08-27T08:41:21.507Z,756.00
2022-08-27T08:42:21.697Z,796.00
2022-08-27T08:43:21.853Z,868.00
2022-08-27T08:44:22.030Z,800.00
2022-08-27T08:45:22.203Z,756.00
2022-08-27T08:46:22.464Z,708.00
2022-08-27T08:47:22.572Z,756.00
2022-08-27T08:48:22.743Z,704.00
2022-08-27T08:49:22.916Z,680.00
2022-08-27T08:50:23.094Z,672.00
2022-08-27T08:51:23.255Z,696.00
2022-08-27T08:52:31.345Z,652.00
2022-08-27T08:53:24.613Z,652.00
2022-08-27T08:54:23.758Z,652.00
2022-08-27T08:55:23.927Z,628.00
2022-08-27T08:56:24.101Z,636.00
2022-08-27T08:57:24.307Z,608.00
2022-08-27T08:58:24.463Z,652.00
2022-08-27T08:59:24.649Z,708.00
2022-08-27T09:00:24.818Z,596.00
2022-08-27T09:01:25.044Z,572.00
2022-08-27T09:02:25.177Z,660.00
2022-08-27T09:03:25.371Z,820.00
2022-08-27T09:04:25.487Z,1024.00
2022-08-27T09:05:27.481Z,1080.00
2022-08-27T09:06:25.801Z,1132.00
2022-08-27T09:07:26.026Z,1136.00
2022-08-27T09:08:35.394Z,1144.00
2022-08-27T09:09:27.350Z,1104.00
2022-08-27T09:10:26.502Z,1040.00
2022-08-27T09:11:26.680Z,992.00
2022-08-27T09:12:26.888Z,1044.00
2022-08-27T09:13:27.037Z,1020.00
2022-08-27T09:14:27.232Z,1084.00
2022-08-27T09:15:27.407Z,1072.00
2022-08-27T09:16:27.664Z,1196.00
2022-08-27T09:17:27.765Z,1084.00
2022-08-27T09:18:28.150Z,1036.00
2022-08-27T09:19:28.107Z,1140.00
2022-08-27T09:20:28.256Z,1496.00
2022-08-27T09:21:28.466Z,1456.00
2022-08-27T09:22:28.608Z,1444.00
2022-08-27T09:23:28.776Z,1192.00
2022-08-27T09:24:28.951Z,1128.00
2022-08-27T09:25:29.139Z,1016.00
2022-08-27T09:26:29.318Z,892.00
2022-08-27T09:27:29.478Z,880.00
2022-08-27T09:28:29.649Z,868.00
2022-08-27T09:29:29.809Z,836.00
2022-08-27T09:30:30.863Z,776.00
2022-08-27T09:31:30.179Z,788.00
2022-08-27T09:32:30.343Z,848.00
2022-08-27T09:33:44.607Z,876.00
2022-08-27T09:34:31.669Z,876.00
2022-08-27T09:35:30.857Z,868.00
2022-08-27T09:36:31.022Z,896.00
2022-08-27T09:37:34.654Z,832.00
2022-08-27T09:38:31.355Z,788.00
2022-08-27T09:39:31.542Z,888.00
2022-08-27T09:40:31.785Z,888.00
2022-08-27T09:41:33.434Z,1024.00
2022-08-27T09:42:32.032Z,1016.00
2022-08-27T09:43:32.207Z,1032.00
2022-08-27T09:44:32.393Z,1016.00
2022-08-27T09:45:32.615Z,1188.00
2022-08-27T09:46:32.745Z,1556.00
2022-08-27T09:47:32.921Z,1348.00
2022-08-27T09:48:33.117Z,1128.00
2022-08-27T09:49:33.278Z,1072.00
2022-08-27T09:50:33.447Z,1232.00
2022-08-27T09:51:33.599Z,1588.00
2022-08-27T09:52:36.583Z,2216.00
2022-08-27T09:53:33.951Z,2756.00
2022-08-27T09:54:34.118Z,2288.00
2022-08-27T09:55:34.299Z,2076.00
2022-08-27T09:56:34.440Z,1916.00
2022-08-27T09:57:34.637Z,1944.00
2022-08-27T09:58:34.804Z,2168.00
2022-08-27T09:59:34.990Z,2068.00
2022-08-27T10:00:35.170Z,1952.00
2022-08-27T10:01:35.430Z,1796.00
2022-08-27T10:02:35.509Z,1916.00
2022-08-27T10:03:35.787Z,2048.00
2022-08-27T10:04:38.088Z,1920.00
2022-08-27T10:05:37.044Z,2072.00
2022-08-27T10:06:36.203Z,2128.00
2022-08-27T10:07:36.382Z,2560.00
2022-08-27T10:08:36.562Z,2548.00
2022-08-27T10:09:36.742Z,2708.00
2022-08-27T10:10:36.933Z,2748.00
2022-08-27T10:11:37.095Z,2736.00
2022-08-27T10:12:37.275Z,3456.00
2022-08-27T10:13:37.476Z,3664.00
2022-08-27T10:14:37.617Z,3792.00
2022-08-27T10:15:44.042Z,4440.00
2022-08-27T10:16:39.005Z,4160.00
2022-08-27T10:17:38.137Z,3480.00
2022-08-27T10:18:38.331Z,2400.00
2022-08-27T10:19:38.484Z,2120.00
2022-08-27T10:20:38.660Z,2228.00
2022-08-27T10:21:38.837Z,2216.00
2022-08-27T10:22:39.022Z,2744.00
2022-08-27T10:23:39.183Z,2292.00
2022-08-27T10:24:39.349Z,1940.00
2022-08-27T10:25:39.518Z,1864.00
2022-08-27T10:26:39.683Z,3072.00
2022-08-27T10:27:39.873Z,5736.00
2022-08-27T10:28:40.031Z,4784.00
2022-08-27T10:29:40.203Z,4692.00
2022-08-27T10:30:40.370Z,4940.00
2022-08-27T10:31:40.592Z,4028.00
2022-08-27T10:32:40.703Z,4048.00
2022-08-27T10:33:40.882Z,3948.00
2022-08-27T10:34:43.255Z,3984.00
2022-08-27T10:35:46.880Z,4468.00
2022-08-27T10:36:42.403Z,3856.00
2022-08-27T10:37:41.596Z,2840.00
2022-08-27T10:38:44.813Z,2244.00
2022-08-27T10:39:41.931Z,1724.00
2022-08-27T10:40:42.177Z,1680.00
2022-08-27T10:41:42.262Z,1668.00
2022-08-27T10:42:42.445Z,1624.00
2022-08-27T10:43:42.617Z,1396.00
2022-08-27T10:44:42.763Z,1100.00
2022-08-27T10:45:43.009Z,980.00
2022-08-27T10:46:50.387Z,896.00
2022-08-27T10:47:44.290Z,904.00
2022-08-27T10:48:43.469Z,1136.00
2022-08-27T10:49:43.621Z,1264.00
2022-08-27T10:50:43.830Z,1220.00
2022-08-27T10:51:43.975Z,1364.00
2022-08-27T10:52:44.168Z,1280.00
2022-08-27T10:53:44.321Z,1272.00
2022-08-27T10:54:44.483Z,1252.00
2022-08-27T10:55:44.657Z,1080.00
2022-08-27T10:56:44.827Z,1240.00
2022-08-27T10:57:57.678Z,1548.00
2022-08-27T10:58:46.174Z,1760.00
2022-08-27T10:59:45.363Z,1840.00
2022-08-27T11:00:45.560Z,1864.00
2022-08-27T11:01:45.763Z,1724.00
2022-08-27T11:02:45.894Z,1684.00
2022-08-27T11:03:46.066Z,1752.00
2022-08-27T11:04:46.237Z,1684.00
2022-08-27T11:05:46.406Z,1792.00
2022-08-27T11:06:46.567Z,1548.00
2022-08-27T11:07:46.759Z,1396.00
2022-08-27T11:08:46.947Z,1388.00
2022-08-27T11:09:47.128Z,1376.00
2022-08-27T11:10:47.278Z,1412.00
2022-08-27T11:12:48.650Z,1340.00
2022-08-27T11:13:47.830Z,1268.00
2022-08-27T11:14:47.979Z,1228.00
2022-08-27T11:15:48.159Z,1108.00
2022-08-27T11:16:48.393Z,1004.00
2022-08-27T11:17:48.490Z,892.00
2022-08-27T11:18:48.709Z,704.00
2022-08-27T11:19:48.841Z,596.00
2022-08-27T11:20:49.018Z,568.00
2022-08-27T11:21:49.182Z,524.00
2022-08-27T11:22:49.353Z,524.00
2022-08-27T11:23:49.561Z,548.00
2022-08-27T11:24:49.707Z,580.00
2022-08-27T11:25:49.874Z,632.00
2022-08-27T11:26:50.058Z,684.00
2022-08-27T11:27:50.233Z,824.00
2022-08-27T11:28:50.426Z,924.00
2022-08-27T11:29:50.595Z,1100.00
2022-08-27T11:30:50.761Z,1380.00
2022-08-27T11:31:51.009Z,2208.00
2022-08-27T11:32:51.097Z,2616.00
2022-08-27T11:33:51.282Z,3024.00
2022-08-27T11:34:51.437Z,2908.00
2022-08-27T11:35:51.591Z,2700.00
2022-08-27T11:36:54.235Z,3332.00
2022-08-27T11:37:51.946Z,2720.00
2022-08-27T11:38:52.129Z,2412.00
2022-08-27T11:39:52.314Z,1864.00
2022-08-27T11:40:52.479Z,1404.00
2022-08-27T11:41:52.661Z,1136.00
2022-08-27T11:42:52.846Z,1024.00
2022-08-27T11:43:53.010Z,964.00
2022-08-27T11:44:53.181Z,908.00
2022-08-27T11:45:53.352Z,896.00
2022-08-27T11:46:53.609Z,920.00
2022-08-27T11:47:53.676Z,956.00
2022-08-27T11:48:53.890Z,992.00
2022-08-27T11:49:54.044Z,1040.00
2022-08-27T11:50:54.195Z,1128.00
2022-08-27T11:51:54.354Z,1244.00
2022-08-27T11:52:54.533Z,1376.00
2022-08-27T11:53:54.713Z,1484.00
2022-08-27T11:54:54.914Z,1516.00
2022-08-27T11:55:55.070Z,1468.00
2022-08-27T11:56:55.226Z,1284.00
2022-08-27T11:57:55.391Z,1152.00
2022-08-27T11:58:55.555Z,1136.00
2022-08-27T11:59:55.741Z,1132.00
2022-08-27T12:00:55.888Z,1188.00
2022-08-27T12:01:56.050Z,1280.00
2022-08-27T12:02:56.229Z,1352.00
2022-08-27T12:03:56.415Z,1428.00
2022-08-27T12:04:56.567Z,1696.00
2022-08-27T12:05:56.730Z,1816.00
2022-08-27T12:06:56.909Z,2200.00
2022-08-27T12:07:57.061Z,2864.00
2022-08-27T12:08:57.265Z,3104.00
2022-08-27T12:09:57.448Z,3592.00
2022-08-27T12:10:57.631Z,4196.00
2022-08-27T12:11:57.783Z,3900.00
2022-08-27T12:12:57.951Z,3832.00
2022-08-27T12:13:58.142Z,3932.00
2022-08-27T12:14:58.344Z,3860.00
2022-08-27T12:15:58.562Z,3684.00
2022-08-27T12:16:58.687Z,3560.00
2022-08-27T12:17:58.835Z,3636.00
2022-08-27T12:18:59.005Z,4172.00
2022-08-27T12:19:59.175Z,3844.00
2022-08-27T12:20:59.365Z,3824.00
2022-08-27T12:21:59.521Z,3832.00
2022-08-27T12:22:59.696Z,4068.00
2022-08-27T12:23:59.856Z,4324.00
2022-08-27T12:25:00.048Z,3832.00
2022-08-27T12:26:00.203Z,3764.00
2022-08-27T12:27:00.403Z,3800.00
2022-08-27T12:28:00.549Z,3716.00
2022-08-27T12:29:00.752Z,3640.00
2022-08-27T12:30:00.910Z,3516.00
2022-08-27T12:31:01.109Z,3388.00
2022-08-27T12:32:01.401Z,3164.00
2022-08-27T12:33:01.472Z,2976.00
2022-08-27T12:34:01.651Z,2788.00
2022-08-27T12:35:01.830Z,2688.00
2022-08-27T12:36:01.996Z,2600.00
2022-08-27T12:37:02.170Z,2468.00
2022-08-27T12:38:03.343Z,2252.00
2022-08-27T12:39:02.539Z,2024.00
2022-08-27T12:40:02.735Z,1924.00
2022-08-27T12:41:02.884Z,1960.00
2022-08-27T12:42:03.034Z,2120.00
2022-08-27T12:43:03.248Z,2300.00
2022-08-27T12:44:03.405Z,2504.00